createdAt,value
2019-05-09T00:02:57.869Z,28.50
2019-05-09T00:06:04.638Z,31.53
2019-05-09T00:09:09.528Z,32.23
2019-05-09T00:12:14.426Z,36.77
2019-05-09T00:15:19.076Z,35.03
2019-05-09T00:18:23.439Z,35.63
2019-05-09T00:21:33.402Z,60.77
2019-05-09T00:24:37.714Z,76.83
2019-05-09T00:27:43.544Z,69.83
2019-05-09T00:30:57.297Z,64.77
2019-05-09T00:34:04.393Z,57.93
2019-05-09T00:37:08.728Z,54.17
2019-05-09T00:40:13.349Z,56.17
2019-05-09T00:43:17.752Z,52.87
2019-05-09T00:46:28.508Z,49.23
2019-05-09T00:49:34.168Z,47.43
2019-05-09T00:52:38.682Z,47.37
2019-05-09T00:55:43.778Z,41.33
2019-05-09T00:58:48.128Z,42.80
2019-05-09T01:01:54.280Z,41.00
2019-05-09T01:04:58.569Z,38.00
2019-05-09T01:08:04.430Z,37.13
2019-05-09T01:11:12.485Z,41.37
2019-05-09T01:14:17.214Z,41.07
2019-05-09T01:17:23.930Z,44.27
2019-05-09T01:20:28.492Z,39.27
2019-05-09T01:23:34.338Z,46.20
2019-05-09T01:26:38.886Z,44.60
2019-05-09T01:29:43.908Z,47.63
2019-05-09T01:32:57.663Z,42.30
2019-05-09T01:36:03.772Z,45.43
2019-05-09T01:39:08.267Z,38.73
2019-05-09T01:42:13.778Z,37.30
2019-05-09T01:45:18.311Z,40.20
2019-05-09T01:48:23.424Z,36.90
2019-05-09T01:51:27.796Z,35.67
2019-05-09T01:54:35.004Z,37.47
2019-05-09T01:57:39.261Z,33.17
2019-05-09T02:00:43.657Z,36.37
2019-05-09T02:03:47.935Z,32.13
2019-05-09T02:06:53.742Z,35.90
2019-05-09T02:09:58.371Z,31.10
2019-05-09T02:13:03.153Z,32.43
2019-05-09T02:16:29.583Z,33.13
2019-05-09T02:19:40.419Z,32.83
2019-05-09T02:22:44.792Z,29.43
2019-05-09T02:25:49.187Z,34.37
2019-05-09T02:28:53.945Z,32.30
2019-05-09T02:31:58.384Z,31.97
2019-05-09T02:35:04.976Z,24.30
2019-05-09T02:38:09.661Z,26.83
2019-05-09T02:41:14.245Z,28.43
2019-05-09T02:44:19.829Z,26.27
2019-05-09T02:47:28.688Z,25.83
2019-05-09T02:50:31.788Z,21.53
2019-05-09T02:53:39.051Z,25.17
2019-05-09T02:56:42.857Z,20.70
2019-05-09T03:00:11.990Z,23.30
2019-05-09T03:03:25.295Z,24.17
2019-05-09T03:06:29.591Z,20.33
2019-05-09T03:09:33.973Z,23.47
2019-05-09T03:12:39.890Z,21.60
2019-05-09T03:15:45.313Z,17.07
2019-05-09T03:18:49.727Z,18.20
2019-05-09T03:21:58.599Z,16.90
2019-05-09T03:25:03.087Z,22.63
2019-05-09T03:28:14.126Z,19.80
2019-05-09T03:31:19.952Z,19.97
2019-05-09T03:34:24.622Z,19.87
2019-05-09T03:37:28.896Z,16.70
2019-05-09T03:40:37.585Z,18.27
2019-05-09T03:43:41.493Z,17.00
2019-05-09T03:46:55.240Z,15.37
2019-05-09T03:50:17.700Z,17.13
2019-05-09T03:53:22.254Z,19.40
2019-05-09T03:56:33.449Z,18.43
2019-05-09T03:59:38.204Z,15.33
2019-05-09T04:02:42.703Z,16.57
2019-05-09T04:05:56.518Z,17.53
2019-05-09T04:08:54.068Z,16.63
2019-05-09T04:12:00.284Z,18.67
2019-05-09T04:15:05.323Z,18.23
2019-05-09T04:18:10.021Z,18.37
2019-05-09T04:21:14.312Z,18.97
2019-05-09T04:24:18.700Z,16.90
2019-05-09T04:27:29.648Z,17.07
2019-05-09T04:30:33.623Z,20.80
2019-05-09T04:33:38.383Z,24.20
2019-05-09T04:36:42.847Z,25.20
2019-05-09T04:39:47.700Z,25.47
2019-05-09T04:42:52.299Z,22.97
2019-05-09T04:45:59.106Z,27.33
2019-05-09T04:49:03.522Z,24.87
2019-05-09T04:52:07.965Z,24.13
2019-05-09T04:55:13.451Z,24.97
2019-05-09T04:58:19.182Z,24.93
2019-05-09T05:01:42.816Z,25.57
2019-05-09T05:04:48.027Z,29.30
2019-05-09T05:07:52.560Z,32.07
2019-05-09T05:10:58.201Z,34.13
2019-05-09T05:14:02.682Z,34.63
2019-05-09T05:17:10.892Z,42.87
2019-05-09T05:20:18.601Z,36.90
2019-05-09T05:23:29.559Z,39.27
2019-05-09T05:26:33.975Z,40.93
2019-05-09T05:29:38.581Z,41.93
2019-05-09T05:32:52.236Z,41.63
2019-05-09T05:35:58.910Z,40.47
2019-05-09T05:39:04.669Z,41.20
2019-05-09T05:42:09.134Z,37.03
2019-05-09T05:45:13.868Z,37.80
2019-05-09T05:48:22.970Z,34.30
2019-05-09T05:51:27.781Z,31.37
2019-05-09T05:54:32.216Z,33.80
2019-05-09T05:57:38.589Z,30.37
2019-05-09T06:00:42.728Z,32.20
2019-05-09T06:03:48.117Z,29.53
2019-05-09T06:06:52.655Z,25.17
2019-05-09T06:09:57.683Z,25.90
2019-05-09T06:13:02.216Z,28.33
2019-05-09T06:16:08.560Z,29.03
2019-05-09T06:19:12.879Z,26.37
2019-05-09T06:22:18.296Z,25.17
2019-05-09T06:25:22.811Z,28.70
2019-05-09T06:28:27.501Z,28.67
2019-05-09T06:31:31.897Z,29.07
2019-05-09T06:34:41.685Z,25.30
2019-05-09T06:37:42.321Z,28.63
2019-05-09T06:40:47.565Z,30.27
2019-05-09T06:44:13.619Z,32.40
2019-05-09T06:47:12.615Z,35.43
2019-05-09T06:50:18.676Z,31.93
2019-05-09T06:53:24.299Z,33.97
2019-05-09T06:56:28.607Z,26.33
2019-05-09T06:59:33.067Z,27.10
2019-05-09T07:02:48.042Z,27.73
2019-05-09T07:06:00.333Z,26.93
2019-05-09T07:09:11.347Z,26.93
2019-05-09T07:12:17.905Z,30.10
2019-05-09T07:15:21.764Z,23.47
2019-05-09T07:18:27.669Z,24.87
2019-05-09T07:21:50.253Z,24.93
2019-05-09T07:25:14.382Z,26.03
2019-05-09T07:28:19.555Z,25.93
2019-05-09T07:31:41.420Z,26.57
2019-05-09T07:34:49.228Z,29.47
2019-05-09T07:37:54.110Z,25.83
2019-05-09T07:41:00.189Z,24.10
2019-05-09T07:44:07.744Z,26.63
2019-05-09T07:47:13.030Z,25.20
2019-05-09T07:50:19.115Z,31.07
2019-05-09T07:53:24.275Z,31.13
2019-05-09T07:56:29.062Z,26.93
2019-05-09T07:59:33.984Z,22.33
2019-05-09T08:02:39.010Z,24.00
2019-05-09T08:05:43.974Z,24.80
2019-05-09T08:08:49.492Z,30.47
2019-05-09T08:11:54.197Z,26.97
2019-05-09T08:15:08.497Z,25.27
2019-05-09T08:18:08.507Z,20.00
2019-05-09T08:21:13.046Z,26.13
2019-05-09T08:24:18.395Z,24.20
2019-05-09T08:27:24.043Z,24.60
2019-05-09T08:30:35.369Z,26.43
2019-05-09T08:33:35.019Z,25.43
2019-05-09T08:36:40.107Z,28.10
2019-05-09T08:39:44.748Z,27.43
2019-05-09T08:42:49.153Z,27.20
2019-05-09T08:45:53.875Z,24.37
2019-05-09T08:48:58.479Z,23.70
2019-05-09T08:52:16.099Z,22.77
2019-05-09T08:55:17.574Z,25.50
2019-05-09T08:58:22.786Z,23.57
2019-05-09T09:01:45.739Z,27.27
2019-05-09T09:04:34.367Z,27.13
2019-05-09T09:07:39.009Z,19.27
2019-05-09T09:10:44.147Z,20.13
2019-05-09T09:13:48.535Z,20.67
2019-05-09T09:16:53.184Z,18.80
2019-05-09T09:19:58.325Z,20.17
2019-05-09T09:23:03.232Z,22.77
2019-05-09T09:26:08.197Z,22.07
2019-05-09T09:29:12.809Z,17.50
2019-05-09T09:32:18.996Z,22.30
2019-05-09T09:35:24.269Z,21.80
2019-05-09T09:38:28.923Z,26.17
2019-05-09T09:41:33.506Z,25.33
2019-05-09T09:44:39.359Z,25.60
2019-05-09T09:47:44.152Z,33.73
2019-05-09T09:50:51.400Z,27.63
2019-05-09T09:53:54.561Z,40.97
2019-05-09T09:56:58.941Z,32.87
2019-05-09T10:00:34.535Z,31.50
2019-05-09T10:03:39.144Z,32.93
2019-05-09T10:06:43.809Z,32.33
2019-05-09T10:09:48.241Z,33.40
2019-05-09T10:12:52.756Z,26.20
2019-05-09T10:16:29.137Z,27.30
2019-05-09T10:19:38.369Z,24.63
2019-05-09T10:22:46.715Z,13.17
2019-05-09T10:25:48.951Z,13.37
2019-05-09T10:28:53.372Z,18.63
2019-05-09T10:31:57.982Z,16.03
2019-05-09T10:35:02.596Z,14.53
2019-05-09T10:38:08.740Z,11.23
2019-05-09T10:41:13.048Z,9.97
2019-05-09T10:44:21.486Z,9.30
2019-05-09T10:47:31.447Z,7.63
2019-05-09T10:50:43.086Z,10.77
2019-05-09T10:53:42.064Z,9.97
2019-05-09T10:56:48.697Z,13.03
2019-05-09T10:59:52.982Z,26.60
2019-05-09T11:02:58.355Z,13.03
2019-05-09T11:06:02.929Z,10.63
2019-05-09T11:09:09.390Z,12.63
2019-05-09T11:12:13.709Z,7.63
2019-05-09T11:15:18.062Z,7.50
2019-05-09T11:18:22.362Z,8.43
2019-05-09T11:21:28.636Z,6.60
2019-05-09T11:24:44.895Z,16.80
2019-05-09T11:27:38.964Z,6.10
2019-05-09T11:30:43.449Z,6.57
2019-05-09T11:33:48.527Z,9.13
2019-05-09T11:36:53.187Z,7.60
2019-05-09T11:39:58.168Z,11.37
2019-05-09T11:43:02.662Z,7.17
2019-05-09T11:46:10.245Z,10.53
2019-05-09T11:49:14.547Z,7.20
2019-05-09T11:52:19.068Z,5.90
2019-05-09T11:55:34.968Z,4.93
2019-05-09T11:58:29.767Z,7.50
2019-05-09T12:01:34.142Z,6.57
2019-05-09T12:04:38.609Z,7.87
2019-05-09T12:07:44.860Z,6.90
2019-05-09T12:10:49.297Z,8.27
2019-05-09T12:13:53.804Z,8.50
2019-05-09T12:16:58.410Z,5.83
2019-05-09T12:20:10.565Z,5.73
2019-05-09T12:23:09.088Z,5.80
2019-05-09T12:26:13.764Z,5.03
2019-05-09T12:29:19.521Z,4.97
2019-05-09T12:32:28.260Z,5.27
2019-05-09T12:35:31.424Z,4.20
2019-05-09T12:38:38.854Z,5.77
2019-05-09T12:41:43.664Z,6.87
2019-05-09T12:44:49.531Z,5.20
2019-05-09T12:48:07.510Z,5.43
2019-05-09T12:51:01.623Z,8.90
2019-05-09T12:54:08.496Z,4.97
2019-05-09T12:57:12.506Z,5.20
2019-05-09T13:00:18.706Z,4.97
2019-05-09T13:03:23.452Z,4.87
2019-05-09T13:06:29.584Z,5.93
2019-05-09T13:09:35.289Z,7.13
2019-05-09T13:12:40.440Z,5.33
2019-05-09T13:15:52.256Z,5.77
2019-05-09T13:19:08.840Z,5.57
2019-05-09T13:22:13.548Z,5.13
2019-05-09T13:25:19.096Z,8.93
2019-05-09T13:28:23.913Z,6.40
2019-05-09T13:31:29.825Z,6.97
2019-05-09T13:34:34.989Z,5.83
2019-05-09T13:37:40.780Z,5.77
2019-05-09T13:40:53.573Z,8.07
2019-05-09T13:43:59.313Z,7.77
2019-05-09T13:47:02.438Z,8.90
2019-05-09T13:50:08.878Z,8.33
2019-05-09T13:53:13.941Z,7.20
2019-05-09T13:56:18.630Z,19.43
2019-05-09T13:59:23.348Z,13.33
2019-05-09T14:02:29.734Z,13.77
2019-05-09T14:05:34.375Z,14.60
2019-05-09T14:08:39.295Z,14.93
2019-05-09T14:11:44.479Z,15.00
2019-05-09T14:14:50.968Z,14.10
2019-05-09T14:17:55.604Z,15.80
2019-05-09T14:21:01.448Z,15.53
2019-05-09T14:24:15.118Z,14.33
2019-05-09T14:27:13.706Z,15.43
2019-05-09T14:30:19.754Z,13.10
2019-05-09T14:33:29.609Z,15.93
2019-05-09T14:36:38.346Z,19.37
2019-05-09T14:39:54.903Z,19.27
2019-05-09T14:42:50.052Z,15.90
2019-05-09T14:45:57.463Z,15.60
2019-05-09T14:49:02.412Z,16.57
2019-05-09T14:52:10.078Z,18.57
2019-05-09T14:55:17.881Z,17.87
2019-05-09T14:58:23.097Z,23.87
2019-05-09T15:01:28.952Z,89.57
2019-05-09T15:04:33.975Z,92.00
2019-05-09T15:07:39.369Z,91.67
2019-05-09T15:10:44.814Z,61.10
2019-05-09T15:13:50.310Z,52.20
2019-05-09T15:16:57.447Z,51.23
2019-05-09T15:20:02.241Z,40.93
2019-05-09T15:23:08.576Z,40.27
2019-05-09T15:26:13.660Z,34.33
2019-05-09T15:29:19.169Z,40.77
2019-05-09T15:32:25.122Z,41.40
2019-05-09T15:35:30.885Z,37.40
2019-05-09T15:38:38.011Z,38.27
2019-05-09T15:41:43.248Z,39.13
2019-05-09T15:44:48.541Z,37.17
2019-05-09T15:47:53.741Z,36.93
2019-05-09T15:50:59.504Z,31.20
2019-05-09T15:54:04.949Z,28.50
2019-05-09T15:57:09.732Z,28.07
2019-05-09T16:00:18.759Z,25.33
2019-05-09T16:03:23.779Z,25.33
2019-05-09T16:06:32.991Z,23.53
2019-05-09T16:09:37.800Z,22.57
2019-05-09T16:12:42.933Z,19.70
2019-05-09T16:15:48.610Z,20.27
2019-05-09T16:18:53.751Z,21.63
2019-05-09T16:21:58.788Z,23.13
2019-05-09T16:25:07.518Z,19.77
2019-05-09T16:28:13.403Z,21.87
2019-05-09T16:31:19.372Z,21.33
2019-05-09T16:34:28.277Z,23.20
2019-05-09T16:37:56.313Z,22.33
2019-05-09T16:40:41.057Z,26.27
2019-05-09T16:43:47.950Z,27.07
2019-05-09T16:46:53.749Z,23.80
2019-05-09T16:49:59.299Z,23.10
2019-05-09T16:53:09.678Z,23.67
2019-05-09T16:56:18.125Z,21.10
2019-05-09T16:59:23.772Z,22.90
2019-05-09T17:02:29.265Z,20.80
2019-05-09T17:05:34.418Z,23.33
2019-05-09T17:08:39.789Z,23.63
2019-05-09T17:11:47.884Z,24.43
2019-05-09T17:14:52.238Z,22.13
2019-05-09T17:17:58.973Z,25.03
2019-05-09T17:21:18.728Z,26.00
2019-05-09T17:24:29.673Z,22.50
2019-05-09T17:27:33.805Z,23.70
2019-05-09T17:30:38.832Z,24.03
2019-05-09T17:33:43.573Z,22.47
2019-05-09T17:36:48.038Z,22.40
2019-05-09T17:39:53.003Z,21.70
2019-05-09T17:43:00.804Z,28.40
2019-05-09T17:46:08.671Z,29.77
2019-05-09T17:49:13.447Z,31.17
2019-05-09T17:52:18.384Z,34.40
2019-05-09T17:55:23.164Z,40.77
2019-05-09T17:58:33.012Z,34.60
2019-05-09T18:01:35.655Z,32.77
2019-05-09T18:04:40.852Z,35.00
2019-05-09T18:07:47.905Z,31.73
2019-05-09T18:10:52.388Z,30.27
2019-05-09T18:14:00.740Z,31.30
2019-05-09T18:17:05.122Z,28.90
2019-05-09T18:20:09.743Z,29.73
2019-05-09T18:23:17.458Z,26.30
2019-05-09T18:26:21.715Z,28.23
2019-05-09T18:29:28.105Z,27.70
2019-05-09T18:32:52.073Z,28.93
2019-05-09T18:35:57.637Z,24.97
2019-05-09T18:39:07.735Z,28.73
2019-05-09T18:42:12.624Z,100.63
2019-05-09T18:45:18.020Z,60.53
2019-05-09T18:48:22.648Z,39.43
2019-05-09T18:51:28.675Z,35.73
2019-05-09T18:54:35.599Z,37.03
2019-05-09T18:57:41.317Z,40.47
2019-05-09T19:00:47.879Z,37.70
2019-05-09T19:03:53.087Z,37.97
2019-05-09T19:06:57.886Z,38.40
2019-05-09T19:10:05.177Z,35.60
2019-05-09T19:13:10.198Z,41.20
2019-05-09T19:16:36.680Z,37.43
2019-05-09T19:20:07.240Z,38.10
2019-05-09T19:23:12.330Z,38.63
2019-05-09T19:26:34.845Z,33.47
2019-05-09T19:29:40.077Z,40.53
2019-05-09T19:32:46.724Z,37.87
2019-05-09T19:35:51.676Z,40.00
2019-05-09T19:38:56.679Z,41.00
2019-05-09T19:42:01.542Z,43.10
2019-05-09T19:45:08.849Z,40.33
2019-05-09T19:48:13.502Z,39.40
2019-05-09T19:51:19.491Z,47.20
2019-05-09T19:54:26.357Z,55.57
2019-05-09T19:57:31.021Z,69.93
2019-05-09T20:00:36.282Z,70.67
2019-05-09T20:03:41.900Z,81.67
2019-05-09T20:06:46.679Z,91.77
2019-05-09T20:09:56.040Z,93.53
2019-05-09T20:13:21.810Z,118.97
2019-05-09T20:16:29.320Z,110.83
2019-05-09T20:19:34.301Z,121.07
2019-05-09T20:22:51.843Z,110.40
2019-05-09T20:25:46.523Z,88.30
2019-05-09T20:28:51.549Z,94.27
2019-05-09T20:31:56.779Z,82.30
2019-05-09T20:35:01.980Z,80.87
2019-05-09T20:38:09.392Z,88.00
2019-05-09T20:41:15.479Z,88.37
2019-05-09T20:44:20.259Z,105.80
2019-05-09T20:47:27.549Z,101.00
2019-05-09T20:50:33.420Z,109.17
2019-05-09T20:53:38.338Z,127.87
2019-05-09T20:56:43.965Z,128.47
2019-05-09T20:59:49.786Z,130.70
2019-05-09T21:02:55.238Z,158.57
2019-05-09T21:06:01.404Z,164.27
2019-05-09T21:09:07.845Z,178.30
2019-05-09T21:12:13.878Z,147.20
2019-05-09T21:15:19.743Z,134.30
2019-05-09T21:18:24.762Z,117.30
2019-05-09T21:21:29.797Z,104.40
2019-05-09T21:24:35.322Z,103.40
2019-05-09T21:27:39.981Z,103.27
2019-05-09T21:30:47.106Z,106.97
2019-05-09T21:33:52.157Z,102.37
2019-05-09T21:36:56.707Z,97.37
2019-05-09T21:40:01.188Z,101.40
2019-05-09T21:43:07.614Z,104.93
2019-05-09T21:46:13.333Z,99.90
2019-05-09T21:49:18.223Z,98.83
2019-05-09T21:52:27.495Z,102.73
2019-05-09T21:55:32.315Z,90.93
2019-05-09T21:58:37.813Z,95.47
2019-05-09T22:01:43.225Z,116.93
2019-05-09T22:04:47.871Z,137.00
2019-05-09T22:07:52.417Z,134.97
2019-05-09T22:10:56.996Z,140.47
2019-05-09T22:14:01.312Z,123.30
2019-05-09T22:17:14.056Z,129.93
2019-05-09T22:20:18.730Z,121.73
2019-05-09T22:23:23.153Z,128.83
2019-05-09T22:26:27.790Z,126.83
2019-05-09T22:29:32.265Z,102.37
2019-05-09T22:32:36.898Z,105.47
2019-05-09T22:35:41.266Z,101.13
2019-05-09T22:38:45.671Z,89.53
2019-05-09T22:41:50.372Z,86.30
2019-05-09T22:44:54.789Z,77.90
2019-05-09T22:47:59.138Z,76.33
2019-05-09T22:51:03.608Z,77.77
2019-05-09T22:54:12.678Z,69.40
2019-05-09T22:57:14.093Z,73.87
2019-05-09T23:00:18.819Z,73.80
2019-05-09T23:03:23.054Z,65.80
2019-05-09T23:06:27.416Z,64.37
2019-05-09T23:09:31.803Z,68.63
2019-05-09T23:12:36.144Z,75.77
2019-05-09T23:15:40.567Z,78.90
2019-05-09T23:18:44.937Z,68.93
2019-05-09T23:21:49.340Z,67.57
2019-05-09T23:24:53.692Z,67.80
2019-05-09T23:27:58.025Z,66.23
2019-05-09T23:31:05.113Z,67.60
2019-05-09T23:34:09.631Z,61.07
2019-05-09T23:37:13.974Z,59.57
2019-05-09T23:40:18.497Z,58.53
2019-05-09T23:43:22.916Z,52.83
2019-05-09T23:46:27.294Z,49.93
2019-05-09T23:49:31.670Z,49.17
2019-05-09T23:52:36.061Z,45.03
2019-05-09T23:55:58.054Z,42.17
2019-05-09T23:59:20.390Z,48.50
